Hanalei, HI

10:32 PM HST on May 24, 2015 (GMT -1000)
North Shore of Kauai | | Change Station
CLOSE
Current Station
Personal Weather Station
Location: Princeville, HI
Elevation: 200 ft
Nearby Weather Stations

Elev 200 ft 22.23 °N, 159.48 °W | Updated 7 seconds ago

Overcast
Overcast
68.7 °F
Feels Like 68.7 °F
N
7.8
Wind Variable Wind from North
Gusts 7.8 mph

Today
High -- | Low -- °F
--% Chance of Precip.
Yesterday
High -- | Low -- °F
Precip. -- in
5:55 AM 7:14 PM
Waxing Crescent, 46% visible
Pressure 30.07 in
Visibility 10.0 miles
Clouds Mostly Cloudy 2100 ft
Overcast 2700 ft
Dew Point 62 °F
Humidity 80%
Rainfall in
Snow Depth Not available.
UV 0 out of 12
Pollen Not available.
Air Quality Not available.
Flu Activity Local Activity
METAR PHLI 250753Z 36008KT 330V060 10SM -RA BKN021 OVC027 20/17 A3008 RMK AO2 RAB26 SLP183 P0003 T02000167 $

More Conditions Fewer Conditions

Pressure 30.07 in
Visibility 10.0 miles
Clouds Mostly Cloudy 2100 ft
Overcast 2700 ft
Dew Point 62 °F
Humidity 80%
Rainfall in
Snow Depth Not available.
UV 0 out of 12
Pollen Not available.
Air Quality Not available.
Flu Activity Local Activity
METAR PHLI 250753Z 36008KT 330V060 10SM -RA BKN021 OVC027 20/17 A3008 RMK AO2 RAB26 SLP183 P0003 T02000167 $

More Conditions Fewer Conditions

10-Day Weather Forecast

Almanac

Astronomy

May. 24, 2015 Rise Set
Actual Time
Civil Twilight
Nautical Twilight
Astronomical Twilight
Moon
Length of Visible Light
Length of Day
Tomorrow will be .
, % of the Moon is Illuminated

Today's Extremes

State Highs State Lows

Community

WunderPhotos

Upload Photos

1,823,959 photos uploaded!

WunderBlogs® & News

Nearby

Air Quality

  Air Quality AQ Index Pollutant
Not available.

Snow Depth

Station Depth Elevation

Earthquake Activity

City Distance Mag. Time & Date
Minimum magnitude displayed is 2.5.

Coastal Water Temperatures

Place Temperature

Stations

Nearby Weather Stations

Station Location Temp. Windchill Dew Point Humidity Wind Precip. Elev Updated Type